createdAt,value
2018-11-07T00:00:21.493Z,53.30
2018-11-07T00:02:50.727Z,54.60
2018-11-07T00:05:20.567Z,56.80
2018-11-07T00:07:49.864Z,55.00
2018-11-07T00:10:18.989Z,52.33
2018-11-07T00:12:48.126Z,51.27
2018-11-07T00:15:17.303Z,54.08
2018-11-07T00:17:46.466Z,53.67
2018-11-07T00:20:15.649Z,52.57
2018-11-07T00:22:44.789Z,55.70
2018-11-07T00:25:13.958Z,53.70
2018-11-07T00:27:43.158Z,54.43
2018-11-07T00:30:12.576Z,54.60
2018-11-07T00:32:41.729Z,55.40
2018-11-07T00:35:12.492Z,52.35
2018-11-07T00:37:42.637Z,52.03
2018-11-07T00:40:12.336Z,52.77
2018-11-07T00:42:41.515Z,52.83
2018-11-07T00:45:12.697Z,53.67
2018-11-07T00:47:42.188Z,55.23
2018-11-07T00:50:15.878Z,53.20
2018-11-07T00:52:45.491Z,53.40
2018-11-07T00:55:15.629Z,53.40
2018-11-07T00:57:45.227Z,53.05
2018-11-07T01:00:18.106Z,50.80
2018-11-07T01:02:48.201Z,53.37
2018-11-07T01:05:17.424Z,54.97
2018-11-07T01:07:47.648Z,61.03
2018-11-07T01:10:16.949Z,52.13
2018-11-07T01:12:46.140Z,54.77
2018-11-07T01:15:15.458Z,53.77
2018-11-07T01:17:44.734Z,52.90
2018-11-07T01:20:14.564Z,53.80
2018-11-07T01:22:44.188Z,54.67
2018-11-07T01:25:13.459Z,54.03
2018-11-07T01:27:42.627Z,57.70
2018-11-07T01:30:13.898Z,54.50
2018-11-07T01:32:43.139Z,52.67
2018-11-07T01:35:12.456Z,50.73
2018-11-07T01:37:41.693Z,52.83
2018-11-07T01:40:13.038Z,51.73
2018-11-07T01:42:42.639Z,51.00
2018-11-07T01:45:12.609Z,52.30
2018-11-07T01:47:41.862Z,50.07
2018-11-07T01:50:12.777Z,49.67
2018-11-07T01:52:42.139Z,51.37
2018-11-07T01:55:12.041Z,52.90
2018-11-07T01:57:41.257Z,51.73
2018-11-07T02:00:12.056Z,51.43
2018-11-07T02:02:42.583Z,52.57
2018-11-07T02:05:12.116Z,52.37
2018-11-07T02:07:41.793Z,52.47
2018-11-07T02:10:11.536Z,51.77
2018-11-07T02:12:41.518Z,51.20
2018-11-07T02:15:11.673Z,51.10
2018-11-07T02:17:41.022Z,47.60
2018-11-07T02:20:12.118Z,49.37
2018-11-07T02:22:41.787Z,52.90
2018-11-07T02:25:11.113Z,53.15
2018-11-07T02:27:40.953Z,53.50
2018-11-07T02:30:11.851Z,52.90
2018-11-07T02:32:41.266Z,49.67
2018-11-07T02:35:10.455Z,50.50
2018-11-07T02:37:39.728Z,49.77
2018-11-07T02:40:09.433Z,49.53
2018-11-07T02:42:38.806Z,49.10
2018-11-07T02:45:08.228Z,51.57
2018-11-07T02:47:37.914Z,50.43
2018-11-07T02:50:08.223Z,53.10
2018-11-07T02:52:37.511Z,50.60
2018-11-07T02:55:06.914Z,48.63
2018-11-07T02:57:36.165Z,52.57
2018-11-07T03:00:08.267Z,51.10
2018-11-07T03:02:37.602Z,49.57
2018-11-07T03:05:07.181Z,50.65
2018-11-07T03:07:36.785Z,53.77
2018-11-07T03:10:07.628Z,50.17
2018-11-07T03:12:36.953Z,50.40
2018-11-07T03:15:06.490Z,52.50
2018-11-07T03:17:36.236Z,49.10
2018-11-07T03:20:07.463Z,49.17
2018-11-07T03:22:36.646Z,53.43
2018-11-07T03:25:06.098Z,51.47
2018-11-07T03:27:35.498Z,51.43
2018-11-07T03:30:06.053Z,53.47
2018-11-07T03:32:35.191Z,54.90
2018-11-07T03:35:04.507Z,51.60
2018-11-07T03:37:33.682Z,52.27
2018-11-07T03:40:04.056Z,50.97
2018-11-07T03:42:33.228Z,50.53
2018-11-07T03:45:02.411Z,50.53
2018-11-07T03:47:31.603Z,52.53
2018-11-07T03:50:00.827Z,49.17
2018-11-07T03:52:30.146Z,50.30
2018-11-07T03:54:59.342Z,48.90
2018-11-07T03:57:29.184Z,48.45
2018-11-07T03:59:58.609Z,50.83
2018-11-07T04:02:27.784Z,48.20
2018-11-07T04:04:57.386Z,49.70
2018-11-07T04:07:26.830Z,48.50
2018-11-07T04:09:56.007Z,47.60
2018-11-07T04:12:25.245Z,49.50
2018-11-07T04:14:54.561Z,50.23
2018-11-07T04:17:23.759Z,48.20
2018-11-07T04:19:53.041Z,48.67
2018-11-07T04:22:22.226Z,47.40
2018-11-07T04:24:51.392Z,48.23
2018-11-07T04:27:20.635Z,46.53
2018-11-07T04:29:50.839Z,45.10
2018-11-07T04:32:20.020Z,45.30
2018-11-07T04:34:49.234Z,41.63
2018-11-07T04:37:18.407Z,44.70
2018-11-07T04:39:47.631Z,41.80
2018-11-07T04:42:16.941Z,38.60
2018-11-07T04:44:46.114Z,42.97
2018-11-07T04:47:15.342Z,37.97
2018-11-07T04:49:44.490Z,37.17
2018-11-07T04:52:14.048Z,35.23
2018-11-07T04:54:43.242Z,34.83
2018-11-07T04:57:12.490Z,34.35
2018-11-07T04:59:41.688Z,32.67
2018-11-07T05:02:10.939Z,33.13
2018-11-07T05:04:40.207Z,33.20
2018-11-07T05:07:13.726Z,33.33
2018-11-07T05:09:42.962Z,34.90
2018-11-07T05:12:12.161Z,34.20
2018-11-07T05:14:41.384Z,33.20
2018-11-07T05:17:10.625Z,31.53
2018-11-07T05:19:39.882Z,34.03
2018-11-07T05:22:09.062Z,32.50
2018-11-07T05:24:38.302Z,33.07
2018-11-07T05:27:08.246Z,31.50
2018-11-07T05:29:37.984Z,33.50
2018-11-07T05:32:07.332Z,31.13
2018-11-07T05:34:36.497Z,30.63
2018-11-07T05:37:06.316Z,32.80
2018-11-07T05:39:35.615Z,34.37
2018-11-07T05:42:04.882Z,34.67
2018-11-07T05:44:34.148Z,36.97
2018-11-07T05:47:03.406Z,34.60
2018-11-07T05:49:32.627Z,35.10
2018-11-07T05:52:01.843Z,35.43
2018-11-07T05:54:31.038Z,36.40
2018-11-07T05:57:00.870Z,34.97
2018-11-07T05:59:30.027Z,38.13
2018-11-07T06:01:59.235Z,34.83
2018-11-07T06:04:28.485Z,34.73
2018-11-07T06:06:57.696Z,37.27
2018-11-07T06:09:26.954Z,38.40
2018-11-07T06:11:56.147Z,40.90
2018-11-07T06:14:25.280Z,39.20
2018-11-07T06:16:54.840Z,41.67
2018-11-07T06:19:26.419Z,43.98
2018-11-07T06:21:55.628Z,41.53
2018-11-07T06:24:24.934Z,41.23
2018-11-07T06:26:54.055Z,39.50
2018-11-07T06:29:23.363Z,40.17
2018-11-07T06:31:52.494Z,40.30
2018-11-07T06:34:21.752Z,39.50
2018-11-07T06:36:50.959Z,41.17
2018-11-07T06:39:20.089Z,38.15
2018-11-07T06:41:50.118Z,38.47
2018-11-07T06:44:19.269Z,39.30
2018-11-07T06:46:48.390Z,39.90
2018-11-07T06:49:17.762Z,38.42
2018-11-07T06:51:46.966Z,38.53
2018-11-07T06:54:16.139Z,37.57
2018-11-07T06:56:45.460Z,35.80
2018-11-07T06:59:14.719Z,39.23
2018-11-07T07:01:44.129Z,38.50
2018-11-07T07:04:13.406Z,39.40
2018-11-07T07:06:42.602Z,41.90
2018-11-07T07:09:11.960Z,40.37
2018-11-07T07:11:41.324Z,39.37
2018-11-07T07:14:10.651Z,38.80
2018-11-07T07:16:39.839Z,39.37
2018-11-07T07:19:09.284Z,40.87
2018-11-07T07:21:38.539Z,39.37
2018-11-07T07:24:07.773Z,42.77
2018-11-07T07:26:37.705Z,44.43
2018-11-07T07:29:07.081Z,45.30
2018-11-07T07:31:36.292Z,45.87
2018-11-07T07:34:05.552Z,43.90
2018-11-07T07:36:34.764Z,49.80
2018-11-07T07:39:04.952Z,50.35
2018-11-07T07:41:34.127Z,47.67
2018-11-07T07:44:03.604Z,44.87
2018-11-07T07:46:32.936Z,46.87
2018-11-07T07:49:02.185Z,46.67
2018-11-07T07:51:32.385Z,47.80
2018-11-07T07:54:01.738Z,46.97
2018-11-07T07:56:31.156Z,48.50
2018-11-07T07:59:00.395Z,50.90
2018-11-07T08:01:29.608Z,51.93
2018-11-07T08:03:58.810Z,52.40
2018-11-07T08:06:28.086Z,52.97
2018-11-07T08:08:57.303Z,51.13
2018-11-07T08:11:26.503Z,55.63
2018-11-07T08:13:55.729Z,53.77
2018-11-07T08:16:24.918Z,52.37
2018-11-07T08:18:54.082Z,50.83
2018-11-07T08:21:23.377Z,48.40
2018-11-07T08:23:52.533Z,49.20
2018-11-07T08:26:21.769Z,47.83
2018-11-07T08:28:50.980Z,47.97
2018-11-07T08:31:20.174Z,48.93
2018-11-07T08:33:49.420Z,45.90
2018-11-07T08:36:18.836Z,45.20
2018-11-07T08:38:48.027Z,45.27
2018-11-07T08:41:17.218Z,46.88
2018-11-07T08:43:46.436Z,46.70
2018-11-07T08:46:15.687Z,45.70
2018-11-07T08:48:45.026Z,48.10
2018-11-07T08:51:14.189Z,45.70
2018-11-07T08:53:43.418Z,43.80
2018-11-07T08:56:12.648Z,47.70
2018-11-07T08:58:41.944Z,44.10
2018-11-07T09:01:11.187Z,46.17
2018-11-07T09:03:40.510Z,42.40
2018-11-07T09:06:09.698Z,42.23
2018-11-07T09:08:38.892Z,44.95
2018-11-07T09:11:08.338Z,44.27
2018-11-07T09:13:38.757Z,44.70
2018-11-07T09:16:07.944Z,42.63
2018-11-07T09:18:37.138Z,42.73
2018-11-07T09:21:06.442Z,43.50
2018-11-07T09:23:35.787Z,43.90
2018-11-07T09:26:05.599Z,43.53
2018-11-07T09:28:34.752Z,42.20
2018-11-07T09:31:03.997Z,43.50
2018-11-07T09:33:33.252Z,43.87
2018-11-07T09:36:02.480Z,43.97
2018-11-07T09:38:31.724Z,43.27
2018-11-07T09:41:00.940Z,44.47
2018-11-07T09:43:30.173Z,43.80
2018-11-07T09:45:59.391Z,44.87
2018-11-07T09:48:28.575Z,41.53
2018-11-07T09:50:57.801Z,44.17
2018-11-07T09:53:27.109Z,44.10
2018-11-07T09:55:56.281Z,43.73
2018-11-07T09:58:25.566Z,43.23
2018-11-07T10:00:54.787Z,44.93
2018-11-07T10:03:23.961Z,46.43
2018-11-07T10:05:53.154Z,46.77
2018-11-07T10:08:22.338Z,43.07
2018-11-07T10:10:51.486Z,46.67
2018-11-07T10:13:20.662Z,45.67
2018-11-07T10:15:49.877Z,44.90
2018-11-07T10:18:19.071Z,45.67
2018-11-07T10:20:48.279Z,44.65
2018-11-07T10:23:17.514Z,44.97
2018-11-07T10:25:46.706Z,45.13
2018-11-07T10:28:16.010Z,44.47
2018-11-07T10:30:45.102Z,43.40
2018-11-07T10:33:14.470Z,45.23
2018-11-07T10:35:43.654Z,42.97
2018-11-07T10:38:12.890Z,45.30
2018-11-07T10:40:42.062Z,43.25
2018-11-07T10:43:11.495Z,44.87
2018-11-07T10:45:40.769Z,43.05
2018-11-07T10:48:09.994Z,44.23
2018-11-07T10:50:39.316Z,45.60
2018-11-07T10:53:08.758Z,46.10
2018-11-07T10:55:38.004Z,44.37
2018-11-07T10:58:07.269Z,44.60
2018-11-07T11:00:41.703Z,43.33
2018-11-07T11:03:15.961Z,45.27
2018-11-07T11:05:45.277Z,42.30
2018-11-07T11:08:14.579Z,42.73
2018-11-07T11:10:43.747Z,42.70
2018-11-07T11:13:13.047Z,43.40
2018-11-07T11:15:42.225Z,43.83
2018-11-07T11:18:11.506Z,43.77
2018-11-07T11:20:40.674Z,44.30
2018-11-07T11:23:09.951Z,43.40
2018-11-07T11:25:39.189Z,43.33
2018-11-07T11:28:08.403Z,44.37
2018-11-07T11:30:37.622Z,43.60
2018-11-07T11:33:07.015Z,44.03
2018-11-07T11:35:36.241Z,43.75
2018-11-07T11:38:05.754Z,41.53
2018-11-07T11:40:35.668Z,44.13
2018-11-07T11:43:05.349Z,43.23
2018-11-07T11:45:34.582Z,41.83
2018-11-07T11:48:03.793Z,42.20
2018-11-07T11:50:32.963Z,42.27
2018-11-07T11:53:02.120Z,41.70
2018-11-07T11:55:31.328Z,43.73
2018-11-07T11:58:00.535Z,42.50
2018-11-07T12:00:29.823Z,42.03
2018-11-07T12:02:58.917Z,42.37
2018-11-07T12:05:28.085Z,42.90
2018-11-07T12:07:57.377Z,42.00
2018-11-07T12:10:27.037Z,42.90
2018-11-07T12:12:57.348Z,42.53
2018-11-07T12:15:27.571Z,41.53
2018-11-07T12:17:57.200Z,42.00
2018-11-07T12:20:26.377Z,43.53
2018-11-07T12:22:55.543Z,43.23
2018-11-07T12:25:24.760Z,42.45
2018-11-07T12:27:53.940Z,42.10
2018-11-07T12:30:24.007Z,43.40
2018-11-07T12:32:54.179Z,40.07
2018-11-07T12:35:23.566Z,44.20
2018-11-07T12:37:52.791Z,41.60
2018-11-07T12:40:21.998Z,40.70
2018-11-07T12:42:51.249Z,40.77
2018-11-07T12:45:20.484Z,42.20
2018-11-07T12:47:49.703Z,39.97
2018-11-07T12:50:21.602Z,38.37
2018-11-07T12:52:50.706Z,40.40
2018-11-07T12:55:20.722Z,39.92
2018-11-07T12:57:50.039Z,41.40
2018-11-07T13:00:21.534Z,40.30
2018-11-07T13:02:50.923Z,41.50
2018-11-07T13:05:20.747Z,40.00
2018-11-07T13:07:50.557Z,42.70
2018-11-07T13:10:20.908Z,41.27
2018-11-07T13:12:50.624Z,41.50
2018-11-07T13:15:19.946Z,40.50
2018-11-07T13:17:50.150Z,40.97
2018-11-07T13:20:20.667Z,39.93
2018-11-07T13:22:51.087Z,39.23
2018-11-07T13:25:20.709Z,42.03
2018-11-07T13:27:49.899Z,38.70
2018-11-07T13:30:20.294Z,37.27
2018-11-07T13:32:49.524Z,39.70
2018-11-07T13:35:19.430Z,37.30
2018-11-07T13:37:49.485Z,39.80
2018-11-07T13:40:20.014Z,37.87
2018-11-07T13:42:49.253Z,38.90
2018-11-07T13:45:19.830Z,38.55
2018-11-07T13:47:50.113Z,38.83
2018-11-07T13:50:20.060Z,37.73
2018-11-07T13:52:49.261Z,39.83
2018-11-07T13:55:18.426Z,39.00
2018-11-07T13:57:47.628Z,39.20
2018-11-07T14:00:18.317Z,37.73
2018-11-07T14:02:48.128Z,38.00
2018-11-07T14:05:17.402Z,38.93
2018-11-07T14:07:46.765Z,36.90
2018-11-07T14:10:26.571Z,37.30
2018-11-07T14:12:55.861Z,36.60
2018-11-07T14:15:25.034Z,39.50
2018-11-07T14:17:54.344Z,38.27
2018-11-07T14:20:23.630Z,38.70
2018-11-07T14:22:52.835Z,41.90
2018-11-07T14:25:22.023Z,38.23
2018-11-07T14:27:51.465Z,37.73
2018-11-07T14:30:21.195Z,37.17
2018-11-07T14:32:55.351Z,37.73
2018-11-07T14:35:24.631Z,38.30
2018-11-07T14:37:54.467Z,39.33
2018-11-07T14:40:23.670Z,38.07
2018-11-07T14:42:52.888Z,36.97
2018-11-07T14:45:22.373Z,37.43
2018-11-07T14:47:51.712Z,37.90
2018-11-07T14:50:20.874Z,35.47
2018-11-07T14:52:50.062Z,38.97
2018-11-07T14:55:19.257Z,38.07
2018-11-07T14:57:48.452Z,41.63
2018-11-07T15:00:18.082Z,38.43
2018-11-07T15:02:47.554Z,40.40
2018-11-07T15:05:17.591Z,37.57
2018-11-07T15:07:47.175Z,37.27
2018-11-07T15:10:17.152Z,38.20
2018-11-07T15:12:46.370Z,37.63
2018-11-07T15:15:16.912Z,37.37
2018-11-07T15:17:46.103Z,35.60
2018-11-07T15:20:16.220Z,36.77
2018-11-07T15:22:45.399Z,36.33
2018-11-07T15:25:15.611Z,36.00
2018-11-07T15:27:45.735Z,38.35
2018-11-07T15:30:15.793Z,39.90
2018-11-07T15:32:45.866Z,38.40
2018-11-07T15:35:15.094Z,39.97
2018-11-07T15:37:44.251Z,37.93
2018-11-07T15:40:14.698Z,37.60
2018-11-07T15:42:44.395Z,39.40
2018-11-07T15:45:15.128Z,40.10
2018-11-07T15:47:44.613Z,39.60
2018-11-07T15:50:19.547Z,38.83
2018-11-07T15:52:49.198Z,40.97
2018-11-07T15:55:18.432Z,39.53
2018-11-07T15:57:47.643Z,40.17
2018-11-07T16:00:17.928Z,36.23
2018-11-07T16:02:47.084Z,40.50
2018-11-07T16:05:16.924Z,43.53
2018-11-07T16:07:46.128Z,42.50
2018-11-07T16:10:16.026Z,42.47
2018-11-07T16:12:45.259Z,43.40
2018-11-07T16:15:16.100Z,42.67
2018-11-07T16:17:45.398Z,42.53
2018-11-07T16:20:15.987Z,40.40
2018-11-07T16:22:46.036Z,39.90
2018-11-07T16:25:15.258Z,42.17
2018-11-07T16:27:45.196Z,42.00
2018-11-07T16:30:16.894Z,42.37
2018-11-07T16:32:46.222Z,41.65
2018-11-07T16:35:15.787Z,43.17
2018-11-07T16:37:45.116Z,44.97
2018-11-07T16:40:15.495Z,44.47
2018-11-07T16:42:45.156Z,46.70
2018-11-07T16:45:15.521Z,46.17
2018-11-07T16:47:44.906Z,45.80
2018-11-07T16:50:15.393Z,44.43
2018-11-07T16:52:44.751Z,44.83
2018-11-07T16:55:14.369Z,46.53
2018-11-07T16:57:43.567Z,45.13
2018-11-07T17:00:18.019Z,44.00
2018-11-07T17:02:48.182Z,42.37
2018-11-07T17:05:18.077Z,43.17
2018-11-07T17:07:47.689Z,44.30
2018-11-07T17:10:17.269Z,43.80
2018-11-07T17:12:46.618Z,45.70
2018-11-07T17:15:15.998Z,41.77
2018-11-07T17:17:45.237Z,44.47
2018-11-07T17:20:15.429Z,42.60
2018-11-07T17:22:44.986Z,44.45
2018-11-07T17:25:16.447Z,42.97
2018-11-07T17:27:45.745Z,47.30
2018-11-07T17:30:16.051Z,55.20
2018-11-07T17:32:45.290Z,55.80
2018-11-07T17:35:15.871Z,52.50
2018-11-07T17:37:45.580Z,46.87
2018-11-07T17:40:17.397Z,49.45
2018-11-07T17:42:47.217Z,48.13
2018-11-07T17:45:18.086Z,48.30
2018-11-07T17:47:48.244Z,48.57
2018-11-07T17:50:18.165Z,47.50
2018-11-07T17:52:47.634Z,47.87
2018-11-07T17:55:17.715Z,49.20
2018-11-07T17:57:47.014Z,49.10
2018-11-07T18:00:18.630Z,46.27
2018-11-07T18:02:47.988Z,43.70
2018-11-07T18:05:17.320Z,45.10
2018-11-07T18:07:46.987Z,48.87
2018-11-07T18:10:17.603Z,49.97
2018-11-07T18:12:47.336Z,45.90
2018-11-07T18:15:16.580Z,46.60
2018-11-07T18:17:45.765Z,50.00
2018-11-07T18:20:15.791Z,50.47
2018-11-07T18:22:45.026Z,51.23
2018-11-07T18:25:15.150Z,50.97
2018-11-07T18:27:44.386Z,47.90
2018-11-07T18:30:14.859Z,48.03
2018-11-07T18:32:44.767Z,47.30
2018-11-07T18:35:15.446Z,49.17
2018-11-07T18:37:44.752Z,47.77
2018-11-07T18:40:15.705Z,48.08
2018-11-07T18:42:44.917Z,48.20
2018-11-07T18:45:14.509Z,48.38
2018-11-07T18:47:45.317Z,47.60
2018-11-07T18:50:17.119Z,49.93
2018-11-07T18:52:46.312Z,48.60
2018-11-07T18:55:16.626Z,50.23
2018-11-07T18:57:46.461Z,51.35
2018-11-07T19:00:17.698Z,51.77
2018-11-07T19:02:47.635Z,48.47
2018-11-07T19:05:17.002Z,51.23
2018-11-07T19:07:46.314Z,51.00
2018-11-07T19:10:17.707Z,53.40
2018-11-07T19:12:47.936Z,51.37
2018-11-07T19:15:17.760Z,53.90
2018-11-07T19:18:56.814Z,52.30
2018-11-07T19:21:26.185Z,51.18
2018-11-07T19:23:55.690Z,53.60
2018-11-07T19:26:25.060Z,55.10
2018-11-07T19:28:54.270Z,62.13
2018-11-07T19:31:23.591Z,58.80
2018-11-07T19:33:52.863Z,56.33
2018-11-07T19:36:22.076Z,55.57
2018-11-07T19:38:51.235Z,52.83
2018-11-07T19:41:20.486Z,53.10
2018-11-07T19:43:49.789Z,51.67
2018-11-07T19:46:19.012Z,52.80
2018-11-07T19:48:48.228Z,54.77
2018-11-07T19:51:17.400Z,55.45
2018-11-07T19:53:46.768Z,56.97
2018-11-07T19:56:16.097Z,55.30
2018-11-07T19:58:46.011Z,59.27
2018-11-07T20:01:15.432Z,55.27
2018-11-07T20:03:44.691Z,55.33
2018-11-07T20:06:14.038Z,55.70
2018-11-07T20:08:43.247Z,55.00
2018-11-07T20:11:12.576Z,60.87
2018-11-07T20:13:41.924Z,55.73
2018-11-07T20:16:11.940Z,55.10
2018-11-07T20:18:41.199Z,54.27
2018-11-07T20:21:10.454Z,54.67
2018-11-07T20:23:39.684Z,54.20
2018-11-07T20:26:09.076Z,56.00
2018-11-07T20:28:38.438Z,54.60
2018-11-07T20:31:07.800Z,52.03
2018-11-07T20:33:37.866Z,55.80
2018-11-07T20:36:07.202Z,57.83
2018-11-07T20:38:36.435Z,56.88
2018-11-07T20:41:05.907Z,55.50
2018-11-07T20:43:35.269Z,55.47
2018-11-07T20:46:04.523Z,57.63
2018-11-07T20:48:33.787Z,57.77
2018-11-07T20:51:03.113Z,58.20
2018-11-07T20:53:32.354Z,62.07
2018-11-07T20:56:01.808Z,56.93
2018-11-07T20:58:31.304Z,59.77
2018-11-07T21:01:00.566Z,58.10
2018-11-07T21:03:29.786Z,58.90
2018-11-07T21:05:59.075Z,58.43
2018-11-07T21:08:28.296Z,57.17
2018-11-07T21:10:57.678Z,57.07
2018-11-07T21:13:26.942Z,57.20
2018-11-07T21:15:56.262Z,58.17
2018-11-07T21:18:25.487Z,58.70
2018-11-07T21:20:54.717Z,58.70
2018-11-07T21:23:23.861Z,59.73
2018-11-07T21:25:53.070Z,61.03
2018-11-07T21:28:22.333Z,58.30
2018-11-07T21:30:51.559Z,57.10
2018-11-07T21:33:21.492Z,58.73
2018-11-07T21:35:50.697Z,58.00
2018-11-07T21:38:20.060Z,57.87
2018-11-07T21:40:49.345Z,57.97
2018-11-07T21:43:18.703Z,60.57
2018-11-07T21:45:47.901Z,59.23
2018-11-07T21:48:19.838Z,59.40
2018-11-07T21:50:49.109Z,62.50
2018-11-07T21:53:19.031Z,64.53
2018-11-07T21:55:48.234Z,58.23
2018-11-07T21:58:17.447Z,60.50
2018-11-07T22:00:46.665Z,64.10
2018-11-07T22:03:15.876Z,58.40
2018-11-07T22:05:45.017Z,60.60
2018-11-07T22:08:14.320Z,63.57
2018-11-07T22:10:43.469Z,63.77
2018-11-07T22:13:12.684Z,59.80
2018-11-07T22:15:42.682Z,63.53
2018-11-07T22:18:12.541Z,68.80
2018-11-07T22:20:41.755Z,62.30
2018-11-07T22:23:11.534Z,63.45
2018-11-07T22:25:40.688Z,65.33
2018-11-07T22:28:09.863Z,67.40
2018-11-07T22:30:39.025Z,63.97
2018-11-07T22:33:08.334Z,64.00
2018-11-07T22:35:37.494Z,75.37
2018-11-07T22:38:06.691Z,71.93
2018-11-07T22:40:35.863Z,70.50
2018-11-07T22:43:05.408Z,81.93
2018-11-07T22:45:34.576Z,77.07
2018-11-07T22:48:03.834Z,75.87
2018-11-07T22:50:33.067Z,68.87
2018-11-07T22:53:02.284Z,75.57
2018-11-07T22:55:31.646Z,72.93
2018-11-07T22:58:00.822Z,71.20
2018-11-07T23:00:35.490Z,72.97
2018-11-07T23:03:04.830Z,71.10
2018-11-07T23:05:34.026Z,69.17
2018-11-07T23:08:03.236Z,64.73
2018-11-07T23:10:32.424Z,64.77
2018-11-07T23:13:02.474Z,64.70
2018-11-07T23:15:36.766Z,60.00
2018-11-07T23:18:06.415Z,58.73
2018-11-07T23:20:35.644Z,63.20
2018-11-07T23:23:05.063Z,62.47
2018-11-07T23:25:34.250Z,62.67
2018-11-07T23:28:03.814Z,64.73
2018-11-07T23:30:32.983Z,56.47
2018-11-07T23:33:03.266Z,59.03
2018-11-07T23:35:32.538Z,60.50
2018-11-07T23:38:01.711Z,59.67
2018-11-07T23:40:30.907Z,62.17
2018-11-07T23:43:00.119Z,59.80
2018-11-07T23:45:29.341Z,59.55
2018-11-07T23:47:58.549Z,64.83
2018-11-07T23:50:27.723Z,65.60
2018-11-07T23:52:56.901Z,63.87
2018-11-07T23:55:26.503Z,63.40
2018-11-07T23:57:55.697Z,64.27
